sensor_id;sensor_type;location;lat;lon;timestamp;pressure;altitude;pressure_sealevel;temperature;humidity
40490;BME280;26196;52.302;10.572;2023-02-15T00:08:02;102107.84;;;10.84;47.09
40490;BME280;26196;52.302;10.572;2023-02-15T00:12:02;102105.25;;;10.81;46.97
40490;BME280;26196;52.302;10.572;2023-02-15T00:16:04;102103.53;;;10.80;47.23
40490;BME280;26196;52.302;10.572;2023-02-15T00:20:39;102093.06;;;10.77;47.28
40490;BME280;26196;52.302;10.572;2023-02-15T00:24:39;102097.41;;;10.77;46.94
40490;BME280;26196;52.302;10.572;2023-02-15T00:28:40;102100.03;;;10.75;47.30
40490;BME280;26196;52.302;10.572;2023-02-15T00:32:40;102099.16;;;10.73;46.93
40490;BME280;26196;52.302;10.572;2023-02-15T00:36:41;102088.72;;;10.71;46.91
40490;BME280;26196;52.302;10.572;2023-02-15T00:41:16;102083.47;;;10.71;46.91
40490;BME280;26196;52.302;10.572;2023-02-15T00:45:16;102079.97;;;10.69;46.67
40490;BME280;26196;52.302;10.572;2023-02-15T00:49:17;102077.38;;;10.65;46.91
40490;BME280;26196;52.302;10.572;2023-02-15T00:53:17;102052.06;;;10.55;46.63
40490;BME280;26196;52.302;10.572;2023-02-15T00:57:54;102057.28;;;10.61;46.77
40490;BME280;26196;52.302;10.572;2023-02-15T01:01:54;102054.66;;;10.61;46.46
40490;BME280;26196;52.302;10.572;2023-02-15T01:05:55;102049.47;;;10.55;46.56
40490;BME280;26196;52.302;10.572;2023-02-15T01:14:33;102045.97;;;10.52;46.59
40490;BME280;26196;52.302;10.572;2023-02-15T01:18:34;102044.25;;;10.47;46.47
40490;BME280;26196;52.302;10.572;2023-02-15T01:22:34;102035.50;;;10.49;46.66
40490;BME280;26196;52.302;10.572;2023-02-15T01:26:34;102039.03;;;10.45;46.46
40490;BME280;26196;52.302;10.572;2023-02-15T01:30:35;102025.06;;;10.43;46.53
40490;BME280;26196;52.302;10.572;2023-02-15T01:34:35;102032.88;;;10.45;46.59
40490;BME280;26196;52.302;10.572;2023-02-15T01:38:36;102023.31;;;10.36;46.11
40490;BME280;26196;52.302;10.572;2023-02-15T01:43:10;102024.19;;;10.38;46.22
40490;BME280;26196;52.302;10.572;2023-02-15T01:47:15;102005.84;;;10.24;45.80
40490;BME280;26196;52.302;10.572;2023-02-15T01:51:19;102021.56;;;10.32;45.84
40490;BME280;26196;52.302;10.572;2023-02-15T01:55:24;102025.03;;;10.26;45.51
40490;BME280;26196;52.302;10.572;2023-02-15T01:59:25;102021.56;;;10.26;45.39
40490;BME280;26196;52.302;10.572;2023-02-15T02:03:42;101991.94;;;10.15;46.09
40490;BME280;26196;52.302;10.572;2023-02-15T02:07:47;101996.28;;;10.23;46.31
40490;BME280;26196;52.302;10.572;2023-02-15T02:11:49;102004.09;;;10.22;45.86
40490;BME280;26196;52.302;10.572;2023-02-15T02:15:58;101995.38;;;10.24;46.24
40490;BME280;26196;52.302;10.572;2023-02-15T02:46:30;101966.66;;;10.09;45.63
40490;BME280;26196;52.302;10.572;2023-02-15T02:50:33;101953.59;;;10.01;46.22
40490;BME280;26196;52.302;10.572;2023-02-15T02:59:20;101962.28;;;10.03;46.14
40490;BME280;26196;52.302;10.572;2023-02-15T03:03:35;101963.16;;;10.02;46.39
40490;BME280;26196;52.302;10.572;2023-02-15T03:07:37;101965.81;;;9.96;45.23
40490;BME280;26196;52.302;10.572;2023-02-15T03:11:41;101956.22;;;9.97;45.90
40490;BME280;26196;52.302;10.572;2023-02-15T03:16:16;101944.00;;;9.91;45.47
40490;BME280;26196;52.302;10.572;2023-02-15T03:20:31;101944.88;;;9.92;46.21
40490;BME280;26196;52.302;10.572;2023-02-15T03:24:43;101937.03;;;9.82;46.49
40490;BME280;26196;52.302;10.572;2023-02-15T03:29:09;101935.28;;;9.88;46.49
40490;BME280;26196;52.302;10.572;2023-02-15T03:33:11;101923.09;;;9.79;46.06
40490;BME280;26196;52.302;10.572;2023-02-15T03:37:37;101924.84;;;9.81;45.65
40490;BME280;26196;52.302;10.572;2023-02-15T03:41:46;101925.69;;;9.86;45.79
40490;BME280;26196;52.302;10.572;2023-02-15T03:50:30;101907.44;;;9.73;46.22
40490;BME280;26196;52.302;10.572;2023-02-15T03:54:50;101915.25;;;9.77;46.10
40490;BME280;26196;52.302;10.572;2023-02-15T03:58:51;101903.03;;;9.75;45.93
40490;BME280;26196;52.302;10.572;2023-02-15T04:03:26;101905.69;;;9.78;45.92
40490;BME280;26196;52.302;10.572;2023-02-15T04:07:29;101905.66;;;9.75;46.20
40490;BME280;26196;52.302;10.572;2023-02-15T04:11:30;101902.19;;;9.74;46.25
40490;BME280;26196;52.302;10.572;2023-02-15T04:15:30;101906.56;;;9.71;45.74
40490;BME280;26196;52.302;10.572;2023-02-15T04:20:07;101890.00;;;9.61;45.94
40490;BME280;26196;52.302;10.572;2023-02-15T04:24:42;101903.94;;;9.63;45.62
40490;BME280;26196;52.302;10.572;2023-02-15T04:29:20;101886.53;;;9.57;45.69
40490;BME280;26196;52.302;10.572;2023-02-15T04:33:55;101906.56;;;9.64;45.79
40490;BME280;26196;52.302;10.572;2023-02-15T04:38:29;101898.72;;;9.61;45.93
40490;BME280;26196;52.302;10.572;2023-02-15T04:43:06;101894.34;;;9.67;46.01
40490;BME280;26196;52.302;10.572;2023-02-15T04:56:58;101880.44;;;9.55;46.14
40490;BME280;26196;52.302;10.572;2023-02-15T05:00:59;101871.72;;;9.53;45.54
40490;BME280;26196;52.302;10.572;2023-02-15T05:04:59;101871.72;;;9.55;46.26
40490;BME280;26196;52.302;10.572;2023-02-15T05:13:36;101862.16;;;9.45;46.18
40490;BME280;26196;52.302;10.572;2023-02-15T05:17:37;101859.50;;;9.46;45.78
40490;BME280;26196;52.302;10.572;2023-02-15T05:22:11;101863.88;;;9.52;45.85
40490;BME280;26196;52.302;10.572;2023-02-15T05:26:16;101870.84;;;9.50;45.70
40490;BME280;26196;52.302;10.572;2023-02-15T05:31:00;101855.19;;;9.47;46.09
40490;BME280;26196;52.302;10.572;2023-02-15T05:35:02;101860.38;;;9.43;45.84
40490;BME280;26196;52.302;10.572;2023-02-15T05:39:02;101853.44;;;9.42;45.50
40490;BME280;26196;52.302;10.572;2023-02-15T05:43:39;101844.72;;;9.40;45.51
40490;BME280;26196;52.302;10.572;2023-02-15T05:47:40;101845.59;;;9.38;46.02
40490;BME280;26196;52.302;10.572;2023-02-15T05:56:17;101859.53;;;9.37;46.48
40490;BME280;26196;52.302;10.572;2023-02-15T06:00:17;101851.69;;;9.37;45.82
40490;BME280;26196;52.302;10.572;2023-02-15T06:04:18;101849.06;;;9.48;47.14
40490;BME280;26196;52.302;10.572;2023-02-15T06:08:53;101865.59;;;9.56;46.67
40490;BME280;26196;52.302;10.572;2023-02-15T06:12:53;101856.91;;;9.41;46.17
40490;BME280;26196;52.302;10.572;2023-02-15T06:16:53;101872.59;;;9.57;46.50
40490;BME280;26196;52.302;10.572;2023-02-15T06:21:31;101859.47;;;9.74;46.64
40490;BME280;26196;52.302;10.572;2023-02-15T06:25:31;101865.53;;;9.85;47.51
40490;BME280;26196;52.302;10.572;2023-02-15T06:29:31;101861.16;;;9.93;47.16
40490;BME280;26196;52.302;10.572;2023-02-15T06:33:32;101835.06;;;9.75;47.22
40490;BME280;26196;52.302;10.572;2023-02-15T06:37:33;101845.53;;;9.67;46.41
40490;BME280;26196;52.302;10.572;2023-02-15T06:41:34;101854.28;;;9.64;46.61
40490;BME280;26196;52.302;10.572;2023-02-15T06:50:11;101860.38;;;9.53;46.60
40490;BME280;26196;52.302;10.572;2023-02-15T06:54:12;101854.28;;;9.46;46.16
40490;BME280;26196;52.302;10.572;2023-02-15T06:58:46;101853.41;;;9.49;45.48
40490;BME280;26196;52.302;10.572;2023-02-15T07:03:23;101857.78;;;9.45;45.84
40490;BME280;26196;52.302;10.572;2023-02-15T07:08:01;101851.69;;;9.43;45.59
40490;BME280;26196;52.302;10.572;2023-02-15T07:12:35;101844.72;;;9.37;45.80
40490;BME280;26196;52.302;10.572;2023-02-15T07:16:42;101848.19;;;9.38;46.21
40490;BME280;26196;52.302;10.572;2023-02-15T07:20:42;101831.66;;;9.39;46.07
40490;BME280;26196;52.302;10.572;2023-02-15T07:24:43;101833.38;;;9.40;45.62
40490;BME280;26196;52.302;10.572;2023-02-15T07:28:43;101828.19;;;9.37;45.82
40490;BME280;26196;52.302;10.572;2023-02-15T07:37:24;101829.06;;;9.34;45.99
40490;BME280;26196;52.302;10.572;2023-02-15T07:41:25;101818.59;;;9.31;45.38
40490;BME280;26196;52.302;10.572;2023-02-15T07:45:26;101820.34;;;9.29;45.16
40490;BME280;26196;52.302;10.572;2023-02-15T07:50:01;101809.88;;;9.28;45.69
40490;BME280;26196;52.302;10.572;2023-02-15T07:54:02;101802.03;;;9.28;45.24
40490;BME280;26196;52.302;10.572;2023-02-15T07:58:02;101800.31;;;9.27;45.21
40490;BME280;26196;52.302;10.572;2023-02-15T08:02:02;101811.66;;;9.26;45.36
40490;BME280;26196;52.302;10.572;2023-02-15T08:06:05;101810.78;;;9.24;45.05
40490;BME280;26196;52.302;10.572;2023-02-15T08:10:40;101811.66;;;9.26;45.15
40490;BME280;26196;52.302;10.572;2023-02-15T08:14:59;101815.13;;;9.23;45.76
40490;BME280;26196;52.302;10.572;2023-02-15T08:19:06;101803.81;;;9.21;45.18
40490;BME280;26196;52.302;10.572;2023-02-15T08:23:06;101803.81;;;9.21;46.04
40490;BME280;26196;52.302;10.572;2023-02-15T08:27:08;101809.88;;;9.20;45.51
40490;BME280;26196;52.302;10.572;2023-02-15T08:31:11;101800.31;;;9.19;45.00
40490;BME280;26196;52.302;10.572;2023-02-15T08:35:11;101809.03;;;9.16;45.05
40490;BME280;26196;52.302;10.572;2023-02-15T08:39:14;101800.31;;;9.17;44.78
40490;BME280;26196;52.302;10.572;2023-02-15T08:43:14;101800.31;;;9.14;44.90
40490;BME280;26196;52.302;10.572;2023-02-15T08:47:15;101809.88;;;9.09;44.19
40490;BME280;26196;52.302;10.572;2023-02-15T08:51:49;101798.59;;;9.07;45.00
40490;BME280;26196;52.302;10.572;2023-02-15T08:55:59;101797.72;;;9.10;45.39
40490;BME280;26196;52.302;10.572;2023-02-15T08:59:59;101800.31;;;9.08;44.25
40490;BME280;26196;52.302;10.572;2023-02-15T09:04:07;101789.00;;;9.06;45.10
40490;BME280;26196;52.302;10.572;2023-02-15T09:08:12;101770.72;;;9.03;44.85
40490;BME280;26196;52.302;10.572;2023-02-15T09:12:12;101781.16;;;9.09;45.01
40490;BME280;26196;52.302;10.572;2023-02-15T09:16:12;101763.78;;;9.02;45.49
40490;BME280;26196;52.302;10.572;2023-02-15T09:20:46;101769.84;;;9.09;45.92
40490;BME280;26196;52.302;10.572;2023-02-15T09:24:47;101763.75;;;9.08;45.91
40490;BME280;26196;52.302;10.572;2023-02-15T09:28:50;101762.03;;;9.01;45.06
40490;BME280;26196;52.302;10.572;2023-02-15T09:32:51;101762.88;;;9.09;45.77
40490;BME280;26196;52.302;10.572;2023-02-15T09:37:25;101758.53;;;9.08;46.29
40490;BME280;26196;52.302;10.572;2023-02-15T09:46:16;101760.28;;;9.11;46.49
40490;BME280;26196;52.302;10.572;2023-02-15T09:50:54;101768.97;;;9.20;46.86
40490;BME280;26196;52.302;10.572;2023-02-15T10:17:04;101741.94;;;9.40;47.85
40490;BME280;26196;52.302;10.572;2023-02-15T10:30:29;101734.06;;;9.49;47.91
40490;BME280;26196;52.302;10.572;2023-02-15T10:34:37;101726.25;;;9.49;47.99
40490;BME280;26196;52.302;10.572;2023-02-15T10:38:43;101722.72;;;9.53;48.01
40490;BME280;26196;52.302;10.572;2023-02-15T11:05:45;101709.63;;;9.62;47.64
40490;BME280;26196;52.302;10.572;2023-02-15T11:14:31;101705.28;;;9.64;47.92
40490;BME280;26196;52.302;10.572;2023-02-15T11:18:43;101714.84;;;9.64;47.62
40490;BME280;26196;52.302;10.572;2023-02-15T11:22:48;101711.38;;;9.62;47.92
40490;BME280;26196;52.302;10.572;2023-02-15T11:26:54;101679.19;;;9.52;47.90
40490;BME280;26196;52.302;10.572;2023-02-15T11:31:02;101702.66;;;9.64;47.88
40490;BME280;26196;52.302;10.572;2023-02-15T11:39:17;101686.06;;;9.69;47.74
40490;BME280;26196;52.302;10.572;2023-02-15T11:47:49;101680.81;;;9.73;47.87
40490;BME280;26196;52.302;10.572;2023-02-15T11:51:49;101677.31;;;9.74;47.79
40490;BME280;26196;52.302;10.572;2023-02-15T11:55:51;101676.47;;;9.71;47.73
40490;BME280;26196;52.302;10.572;2023-02-15T12:04:36;101668.63;;;9.69;48.37
40490;BME280;26196;52.302;10.572;2023-02-15T12:08:45;101652.13;;;9.62;48.66
40490;BME280;26196;52.302;10.572;2023-02-15T12:13:09;101659.03;;;9.70;48.37
40490;BME280;26196;52.302;10.572;2023-02-15T12:17:12;101667.75;;;9.72;48.36
40490;BME280;26196;52.302;10.572;2023-02-15T12:21:24;101663.38;;;9.74;48.44
40490;BME280;26196;52.302;10.572;2023-02-15T12:25:35;101653.78;;;9.79;48.80
40490;BME280;26196;52.302;10.572;2023-02-15T12:29:41;101663.31;;;9.84;49.11
40490;BME280;26196;52.302;10.572;2023-02-15T12:33:43;101664.19;;;9.85;48.80
40490;BME280;26196;52.302;10.572;2023-02-15T12:38:02;101668.56;;;9.86;49.05
40490;BME280;26196;52.302;10.572;2023-02-15T12:42:14;101669.41;;;9.88;49.40
40490;BME280;26196;52.302;10.572;2023-02-15T12:46:40;101658.09;;;9.86;49.94
40490;BME280;26196;52.302;10.572;2023-02-15T12:50:51;101646.78;;;9.85;49.93
40490;BME280;26196;52.302;10.572;2023-02-15T13:04:28;101641.44;;;9.99;50.02
40490;BME280;26196;52.302;10.572;2023-02-15T13:13:32;101630.91;;;10.10;50.08
40490;BME280;26196;52.302;10.572;2023-02-15T13:18:05;101620.44;;;10.12;50.46
40490;BME280;26196;52.302;10.572;2023-02-15T13:22:17;101610.81;;;10.15;50.69
40490;BME280;26196;52.302;10.572;2023-02-15T13:26:40;101619.50;;;10.20;50.87
40490;BME280;26196;52.302;10.572;2023-02-15T13:30:46;101612.47;;;10.30;51.40
40490;BME280;26196;52.302;10.572;2023-02-15T13:35:21;101604.59;;;10.33;51.50
40490;BME280;26196;52.302;10.572;2023-02-15T13:52:41;101593.97;;;10.51;51.66
40490;BME280;26196;52.302;10.572;2023-02-15T14:06:32;101591.22;;;10.64;52.02
40490;BME280;26196;52.302;10.572;2023-02-15T14:15:46;101583.25;;;10.73;51.68
40490;BME280;26196;52.302;10.572;2023-02-15T14:25:06;101578.81;;;10.81;52.35
40490;BME280;26196;52.302;10.572;2023-02-15T14:47:34;101579.56;;;10.91;53.68
40490;BME280;26196;52.302;10.572;2023-02-15T14:52:08;101572.56;;;10.91;53.83
40490;BME280;26196;52.302;10.572;2023-02-15T15:00:34;101566.44;;;10.94;54.38
40490;BME280;26196;52.302;10.572;2023-02-15T15:09:21;101570.72;;;11.03;54.34
40490;BME280;26196;52.302;10.572;2023-02-15T15:26:27;101554.00;;;11.11;54.66
40490;BME280;26196;52.302;10.572;2023-02-15T15:39:26;101565.25;;;11.18;55.03
40490;BME280;26196;52.302;10.572;2023-02-15T15:48:20;101580.03;;;11.27;54.97
40490;BME280;26196;52.302;10.572;2023-02-15T15:52:28;101565.16;;;11.27;54.87
40490;BME280;26196;52.302;10.572;2023-02-15T16:11:13;101549.31;;;11.35;54.89
40490;BME280;26196;52.302;10.572;2023-02-15T16:15:18;101556.28;;;11.37;54.75
40490;BME280;26196;52.302;10.572;2023-02-15T16:19:32;101533.66;;;11.30;54.92
40490;BME280;26196;52.302;10.572;2023-02-15T16:28:33;101544.00;;;11.41;54.87
40490;BME280;26196;52.302;10.572;2023-02-15T16:33:11;101543.97;;;11.43;54.86
40490;BME280;26196;52.302;10.572;2023-02-15T16:37:46;101544.84;;;11.45;54.86
40490;BME280;26196;52.302;10.572;2023-02-15T16:42:23;101536.97;;;11.45;54.79
40490;BME280;26196;52.302;10.572;2023-02-15T16:46:58;101531.63;;;11.49;54.84
40490;BME280;26196;52.302;10.572;2023-02-15T16:51:33;101534.19;;;11.55;55.11
40490;BME280;26196;52.302;10.572;2023-02-15T17:00:34;101534.16;;;11.57;54.67
40490;BME280;26196;52.302;10.572;2023-02-15T17:04:36;101545.53;;;11.56;54.49
40490;BME280;26196;52.302;10.572;2023-02-15T17:09:14;101555.16;;;11.55;54.35
40490;BME280;26196;52.302;10.572;2023-02-15T17:18:19;101549.88;;;11.57;54.74
40490;BME280;26196;52.302;10.572;2023-02-15T17:22:39;101548.09;;;11.59;54.20
40490;BME280;26196;52.302;10.572;2023-02-15T17:27:12;101548.09;;;11.60;54.41
40490;BME280;26196;52.302;10.572;2023-02-15T17:36:23;101538.41;;;11.64;54.37
40490;BME280;26196;52.302;10.572;2023-02-15T17:40:27;101540.19;;;11.64;54.29
40490;BME280;26196;52.302;10.572;2023-02-15T17:45:01;101542.75;;;11.67;53.77
40490;BME280;26196;52.302;10.572;2023-02-15T17:49:02;101539.25;;;11.66;53.35
40490;BME280;26196;52.302;10.572;2023-02-15T17:53:38;101535.78;;;11.66;53.26
40490;BME280;26196;52.302;10.572;2023-02-15T17:57:38;101533.97;;;11.68;53.03
40490;BME280;26196;52.302;10.572;2023-02-15T18:02:16;101533.97;;;11.69;53.02
40490;BME280;26196;52.302;10.572;2023-02-15T18:06:53;101515.75;;;11.60;53.35
40490;BME280;26196;52.302;10.572;2023-02-15T18:11:30;101533.09;;;11.69;52.92
40490;BME280;26196;52.302;10.572;2023-02-15T18:20:42;101519.94;;;11.70;52.43
40490;BME280;26196;52.302;10.572;2023-02-15T18:25:18;101516.47;;;11.70;52.27
40490;BME280;26196;52.302;10.572;2023-02-15T18:29:19;101517.31;;;11.70;52.56
40490;BME280;26196;52.302;10.572;2023-02-15T18:33:53;101517.31;;;11.70;51.81
40490;BME280;26196;52.302;10.572;2023-02-15T18:38:29;101509.47;;;11.70;51.80
40490;BME280;26196;52.302;10.572;2023-02-15T18:43:03;101506.84;;;11.70;51.79
40490;BME280;26196;52.302;10.572;2023-02-15T18:47:41;101515.56;;;11.72;51.71
40490;BME280;26196;52.302;10.572;2023-02-15T18:52:16;101506.81;;;11.73;51.64
40490;BME280;26196;52.302;10.572;2023-02-15T18:56:53;101498.97;;;11.72;51.57
40490;BME280;26196;52.302;10.572;2023-02-15T19:01:28;101501.59;;;11.70;50.85
40490;BME280;26196;52.302;10.572;2023-02-15T19:10:26;101488.53;;;11.69;50.88
40490;BME280;26196;52.302;10.572;2023-02-15T19:14:59;101488.47;;;11.70;50.51
40490;BME280;26196;52.302;10.572;2023-02-15T19:19:34;101501.63;;;11.69;50.53
40490;BME280;26196;52.302;10.572;2023-02-15T19:24:14;101496.41;;;11.67;50.58
40490;BME280;26196;52.302;10.572;2023-02-15T19:28:45;101495.53;;;11.68;50.13
40490;BME280;26196;52.302;10.572;2023-02-15T19:33:20;101484.13;;;11.69;50.21
40490;BME280;26196;52.302;10.572;2023-02-15T19:37:57;101485.97;;;11.66;50.11
40490;BME280;26196;52.302;10.572;2023-02-15T19:41:58;101481.63;;;11.61;49.93
40490;BME280;26196;52.302;10.572;2023-02-15T19:50:37;101484.31;;;11.57;49.84
40490;BME280;26196;52.302;10.572;2023-02-15T19:54:55;101487.84;;;11.56;49.86
40490;BME280;26196;52.302;10.572;2023-02-15T19:59:22;101482.59;;;11.57;50.08
40490;BME280;26196;52.302;10.572;2023-02-15T20:03:57;101490.41;;;11.60;49.94
40490;BME280;26196;52.302;10.572;2023-02-15T20:08:33;101479.91;;;11.60;49.83
40490;BME280;26196;52.302;10.572;2023-02-15T20:13:09;101484.25;;;11.61;49.98
40490;BME280;26196;52.302;10.572;2023-02-15T20:17:42;101468.47;;;11.66;49.87
40490;BME280;26196;52.302;10.572;2023-02-15T20:22:21;101459.69;;;11.69;49.91
40490;BME280;26196;52.302;10.572;2023-02-15T20:26:56;101459.63;;;11.70;49.75
40490;BME280;26196;52.302;10.572;2023-02-15T20:31:30;101465.78;;;11.69;49.38
40490;BME280;26196;52.302;10.572;2023-02-15T20:36:05;101462.38;;;11.64;49.45
40490;BME280;26196;52.302;10.572;2023-02-15T20:40:43;101463.09;;;11.74;49.58
40490;BME280;26196;52.302;10.572;2023-02-15T20:50:00;101459.69;;;11.69;49.32
40490;BME280;26196;52.302;10.572;2023-02-15T20:54:00;101466.63;;;11.71;48.82
40490;BME280;26196;52.302;10.572;2023-02-15T20:58:35;101470.28;;;11.59;49.05
40490;BME280;26196;52.302;10.572;2023-02-15T21:03:11;101470.41;;;11.53;48.59
40490;BME280;26196;52.302;10.572;2023-02-15T21:07:15;101459.06;;;11.51;48.60
40490;BME280;26196;52.302;10.572;2023-02-15T21:11:50;101464.25;;;11.56;48.70
40490;BME280;26196;52.302;10.572;2023-02-15T21:16:26;101458.16;;;11.54;48.80
40490;BME280;26196;52.302;10.572;2023-02-15T21:20:28;101461.69;;;11.53;48.53
40490;BME280;26196;52.302;10.572;2023-02-15T21:24:29;101469.53;;;11.53;48.69
40490;BME280;26196;52.302;10.572;2023-02-15T21:29:10;101466.94;;;11.53;48.38
40490;BME280;26196;52.302;10.572;2023-02-15T21:33:11;101452.97;;;11.51;48.30
40490;BME280;26196;52.302;10.572;2023-02-15T21:37:29;101439.25;;;11.33;48.01
40490;BME280;26196;52.302;10.572;2023-02-15T21:41:31;101459.22;;;11.42;47.86
40490;BME280;26196;52.302;10.572;2023-02-15T21:46:13;101465.38;;;11.39;47.94
40490;BME280;26196;52.302;10.572;2023-02-15T21:50:33;101472.47;;;11.34;47.93
40490;BME280;26196;52.302;10.572;2023-02-15T21:54:53;101461.06;;;11.34;47.84
40490;BME280;26196;52.302;10.572;2023-02-15T21:58:53;101458.56;;;11.29;47.73
40490;BME280;26196;52.302;10.572;2023-02-15T22:03:31;101457.66;;;11.30;47.80
40490;BME280;26196;52.302;10.572;2023-02-15T22:07:32;101463.78;;;11.29;47.69
40490;BME280;26196;52.302;10.572;2023-02-15T22:11:33;101443.91;;;11.13;47.57
40490;BME280;26196;52.302;10.572;2023-02-15T22:15:35;101464.72;;;11.25;47.56
40490;BME280;26196;52.302;10.572;2023-02-15T22:19:36;101470.91;;;11.18;47.54
40490;BME280;26196;52.302;10.572;2023-02-15T22:23:37;101461.28;;;11.22;47.85
40490;BME280;26196;52.302;10.572;2023-02-15T22:27:38;101463.97;;;11.17;47.79
40490;BME280;26196;52.302;10.572;2023-02-15T22:31:39;101467.38;;;11.21;47.61
40490;BME280;26196;52.302;10.572;2023-02-15T22:40:18;101477.94;;;11.17;47.58
40490;BME280;26196;52.302;10.572;2023-02-15T22:44:24;101467.47;;;11.16;47.68
40490;BME280;26196;52.302;10.572;2023-02-15T22:48:26;101468.38;;;11.13;47.68
40490;BME280;26196;52.302;10.572;2023-02-15T22:52:26;101466.63;;;11.12;47.55
40490;BME280;26196;52.302;10.572;2023-02-15T22:56:34;101457.16;;;11.04;47.59
40490;BME280;26196;52.302;10.572;2023-02-15T23:00:38;101444.97;;;11.00;47.47
40490;BME280;26196;52.302;10.572;2023-02-15T23:04:39;101463.22;;;11.09;47.59
40490;BME280;26196;52.302;10.572;2023-02-15T23:08:40;101457.16;;;11.04;47.77
40490;BME280;26196;52.302;10.572;2023-02-15T23:12:41;101464.97;;;11.05;47.72
40490;BME280;26196;52.302;10.572;2023-02-15T23:17:01;101462.44;;;11.01;47.68
40490;BME280;26196;52.302;10.572;2023-02-15T23:21:09;101451.06;;;11.03;47.69
40490;BME280;26196;52.302;10.572;2023-02-15T23:25:14;101459.75;;;11.05;47.34
40490;BME280;26196;52.302;10.572;2023-02-15T23:29:19;101459.78;;;11.04;47.66
40490;BME280;26196;52.302;10.572;2023-02-15T23:33:22;101452.78;;;11.04;47.54
40490;BME280;26196;52.302;10.572;2023-02-15T23:37:57;101459.84;;;11.01;47.90
40490;BME280;26196;52.302;10.572;2023-02-15T23:41:58;101456.31;;;11.02;47.72
40490;BME280;26196;52.302;10.572;2023-02-15T23:45:59;101457.22;;;11.01;47.51
40490;BME280;26196;52.302;10.572;2023-02-15T23:50:00;101447.69;;;10.93;47.89
40490;BME280;26196;52.302;10.572;2023-02-15T23:54:37;101457.22;;;10.99;47.78
40490;BME280;26196;52.302;10.572;2023-02-15T23:58:39;101459.84;;;11.01;47.62
